Time;durP1;ratioP1;P1;durP2;ratioP2;P2;SDS_P1;SDS_P2;PMS_P1;PMS_P2;Temp;Humidity;BMP_temperature;BMP_pressure;BME280_temperature;BME280_humidity;BME280_pressure;Samples;Min_cycle;Max_cycle;Signal;HPM_P1;HPM_P2
2023/12/11 00:00:30;;;;;;;8.68;3.58;;;9.20;99.90;;;;;;5039803;28;20041;-69
2023/12/11 00:02:56;;;;;;;1.67;1.45;;;9.20;99.90;;;;;;5041210;28;20164;-69
2023/12/11 00:05:22;;;;;;;0.25;0.25;;;9.30;99.90;;;;;;5036200;28;20119;-69
2023/12/11 00:07:47;;;;;;;1.85;1.00;;;9.30;99.90;;;;;;5037269;28;20049;-69
2023/12/11 00:10:14;;;;;;;1.50;1.45;;;9.30;99.90;;;;;;5038835;28;20065;-69
2023/12/11 00:12:39;;;;;;;5.10;2.40;;;9.30;99.90;;;;;;5042696;28;20029;-69
2023/12/11 00:15:06;;;;;;;1.38;1.30;;;9.30;99.90;;;;;;5046168;28;20374;-69
2023/12/11 00:17:31;;;;;;;3.83;3.20;;;9.30;99.90;;;;;;5043583;28;20053;-69
2023/12/11 00:19:57;;;;;;;5.57;1.30;;;9.30;99.90;;;;;;5039087;28;20049;-69
2023/12/11 00:22:22;;;;;;;0.65;0.65;;;9.30;99.90;;;;;;5040043;28;20037;-69
2023/12/11 00:24:48;;;;;;;2.13;1.10;;;9.30;99.90;;;;;;5046826;28;20455;-68
2023/12/11 00:27:14;;;;;;;0.30;0.30;;;9.30;99.90;;;;;;5045390;28;20072;-69
2023/12/11 00:29:39;;;;;;;0.82;0.82;;;9.30;99.90;;;;;;5037529;28;20534;-69
2023/12/11 00:32:05;;;;;;;0.90;0.90;;;9.30;99.90;;;;;;5037704;28;20164;-69
2023/12/11 00:34:32;;;;;;;0.55;0.55;;;9.30;99.90;;;;;;5037150;28;20049;-68
2023/12/11 00:36:58;;;;;;;0.98;0.82;;;9.30;99.90;;;;;;5032454;28;20041;-69
2023/12/11 00:39:24;;;;;;;2.25;2.00;;;9.30;99.90;;;;;;5053356;28;20543;-69
2023/12/11 00:41:50;;;;;;;2.75;2.28;;;9.30;99.90;;;;;;5039385;28;20107;-69
2023/12/11 00:44:15;;;;;;;1.25;1.25;;;9.30;99.90;;;;;;5040735;28;20496;-69
2023/12/11 00:46:41;;;;;;;0.52;0.52;;;9.30;99.90;;;;;;5036760;28;20041;-69
2023/12/11 00:49:07;;;;;;;3.40;1.60;;;9.40;99.90;;;;;;5035059;28;20049;-69
2023/12/11 00:51:33;;;;;;;0.20;0.20;;;9.40;99.90;;;;;;5044346;28;20033;-69
2023/12/11 00:53:59;;;;;;;0.55;0.55;;;9.40;99.90;;;;;;5042463;28;20041;-69
2023/12/11 00:56:24;;;;;;;15.88;1.33;;;9.40;99.90;;;;;;5045150;28;20041;-69
2023/12/11 00:58:50;;;;;;;1.25;0.70;;;9.40;99.90;;;;;;5051583;28;20114;-69
2023/12/11 01:01:16;;;;;;;0.65;0.65;;;9.40;99.90;;;;;;5041118;28;20040;-69
2023/12/11 01:03:41;;;;;;;2.05;1.60;;;9.30;99.90;;;;;;5036684;28;20049;-69
2023/12/11 01:06:07;;;;;;;0.10;0.10;;;9.30;99.90;;;;;;5055166;28;20041;-69
2023/12/11 01:08:38;;;;;;;0.10;0.10;;;9.40;99.90;;;;;;5045252;28;20045;-69
2023/12/11 01:11:04;;;;;;;0.28;0.28;;;9.30;99.90;;;;;;5040384;28;20041;-69
2023/12/11 01:13:30;;;;;;;0.05;0.05;;;9.30;99.90;;;;;;5040393;28;20038;-69
2023/12/11 01:15:56;;;;;;;15.20;2.30;;;9.30;99.90;;;;;;5055872;28;20052;-69
2023/12/11 01:18:23;;;;;;;1.15;1.05;;;9.30;99.90;;;;;;5045910;28;20033;-69
2023/12/11 01:20:49;;;;;;;0.10;0.10;;;9.30;99.90;;;;;;5038054;28;20511;-70
2023/12/11 01:23:15;;;;;;;1.05;1.05;;;9.30;99.90;;;;;;5042714;28;20070;-70
2023/12/11 01:25:41;;;;;;;1.95;1.85;;;9.30;99.90;;;;;;5037265;28;20044;-69
2023/12/11 01:28:06;;;;;;;0.10;0.10;;;9.30;99.90;;;;;;5039635;28;20046;-69
2023/12/11 01:30:32;;;;;;;5.82;1.00;;;9.20;99.90;;;;;;5033541;28;20037;-69
2023/12/11 01:32:57;;;;;;;0.10;0.10;;;9.20;99.90;;;;;;5040228;28;20072;-69
2023/12/11 01:35:23;;;;;;;0.15;0.15;;;9.20;99.90;;;;;;5042216;28;20044;-69
2023/12/11 01:37:49;;;;;;;0.75;0.75;;;9.20;99.90;;;;;;5037832;28;20045;-69
2023/12/11 01:40:14;;;;;;;1.85;1.75;;;9.20;99.90;;;;;;5036778;28;20091;-69
2023/12/11 01:42:40;;;;;;;0.10;0.10;;;9.10;99.90;;;;;;5042792;28;20041;-68
2023/12/11 01:45:06;;;;;;;20.42;2.75;;;9.20;99.90;;;;;;5040953;28;20472;-69
2023/12/11 01:47:32;;;;;;;2.40;1.00;;;9.20;99.90;;;;;;5043057;28;20053;-69
2023/12/11 01:49:58;;;;;;;0.82;0.82;;;9.20;99.90;;;;;;5038682;28;20029;-69
2023/12/11 01:52:25;;;;;;;2.10;0.95;;;9.20;99.90;;;;;;5041084;28;20107;-69
2023/12/11 01:54:51;;;;;;;2.70;2.50;;;9.20;99.90;;;;;;5047770;28;20243;-69
2023/12/11 01:57:17;;;;;;;0.38;0.38;;;9.20;99.90;;;;;;5045455;28;20041;-69
2023/12/11 01:59:43;;;;;;;0.15;0.15;;;9.20;99.90;;;;;;5045199;28;20534;-69
2023/12/11 02:02:09;;;;;;;1.98;1.85;;;9.20;99.90;;;;;;5039890;28;20051;-69
2023/12/11 02:04:34;;;;;;;3.15;2.30;;;9.20;99.90;;;;;;5041863;28;20404;-69
2023/12/11 02:07:00;;;;;;;1.30;1.25;;;9.20;99.90;;;;;;5043628;28;20041;-69
2023/12/11 02:09:28;;;;;;;0.85;0.82;;;9.30;99.90;;;;;;5038606;28;20594;-70
2023/12/11 02:11:55;;;;;;;2.17;0.65;;;9.20;99.90;;;;;;5047708;28;20126;-69
2023/12/11 02:14:22;;;;;;;3.33;2.17;;;9.30;99.90;;;;;;5040084;28;20124;-69
2023/12/11 02:16:48;;;;;;;0.17;0.17;;;9.20;99.90;;;;;;5064101;28;20151;-69
2023/12/11 02:19:14;;;;;;;1.08;1.08;;;9.20;99.90;;;;;;5047842;28;20456;-70
2023/12/11 02:21:39;;;;;;;0.57;0.55;;;9.20;99.90;;;;;;5037620;28;20140;-70
2023/12/11 02:24:10;;;;;;;0.30;0.30;;;9.20;99.90;;;;;;5044963;28;20073;-70
2023/12/11 02:26:36;;;;;;;0.17;0.17;;;9.20;99.90;;;;;;5048596;28;20029;-69
2023/12/11 02:29:01;;;;;;;0.65;0.65;;;9.20;99.90;;;;;;5056676;28;20515;-70
2023/12/11 02:31:27;;;;;;;2.33;2.13;;;9.20;99.90;;;;;;5037728;28;20504;-69
2023/12/11 02:33:53;;;;;;;0.77;0.77;;;9.20;99.90;;;;;;5034574;28;20508;-70
2023/12/11 02:36:18;;;;;;;1.92;1.83;;;9.20;99.90;;;;;;5040452;28;20048;-70
2023/12/11 02:38:44;;;;;;;1.92;1.77;;;9.30;99.90;;;;;;5042181;28;20077;-70
2023/12/11 02:41:09;;;;;;;0.17;0.17;;;9.30;99.90;;;;;;5042761;28;20048;-69
2023/12/11 02:43:35;;;;;;;0.40;0.40;;;9.20;99.90;;;;;;5045806;28;20044;-69
2023/12/11 02:46:02;;;;;;;1.98;1.88;;;9.20;99.90;;;;;;5042196;28;20045;-70
2023/12/11 02:48:29;;;;;;;0.93;0.90;;;9.20;99.90;;;;;;5034837;28;20053;-70
2023/12/11 02:50:54;;;;;;;0.57;0.57;;;9.20;99.90;;;;;;5041417;28;20080;-70
2023/12/11 02:53:20;;;;;;;6.55;2.65;;;9.20;99.90;;;;;;5041914;28;20068;-69
2023/12/11 02:55:46;;;;;;;2.38;2.17;;;9.30;99.90;;;;;;5036985;28;20803;-70
2023/12/11 02:58:11;;;;;;;1.33;1.17;;;9.30;99.90;;;;;;5048494;28;20041;-70
2023/12/11 03:00:37;;;;;;;1.00;0.85;;;9.30;99.90;;;;;;5039958;28;20167;-70
2023/12/11 03:03:03;;;;;;;8.98;3.13;;;9.30;99.90;;;;;;5037034;28;20077;-70
2023/12/11 03:05:28;;;;;;;8.50;3.10;;;9.30;99.90;;;;;;5037295;28;20048;-70
2023/12/11 03:07:54;;;;;;;3.75;2.78;;;9.30;99.90;;;;;;5048376;28;20036;-70
2023/12/11 03:10:21;;;;;;;12.90;1.90;;;9.30;99.90;;;;;;5038511;28;20056;-69
2023/12/11 03:12:47;;;;;;;0.10;0.10;;;9.30;99.90;;;;;;5045782;28;20047;-69
2023/12/11 03:15:12;;;;;;;0.40;0.40;;;9.30;99.90;;;;;;5043150;28;20045;-69
2023/12/11 03:17:38;;;;;;;2.38;2.17;;;9.30;99.90;;;;;;5043760;28;20029;-70
2023/12/11 03:20:05;;;;;;;0.75;0.75;;;9.30;99.90;;;;;;5040298;28;20047;-70
2023/12/11 03:22:31;;;;;;;0.50;0.50;;;9.30;99.90;;;;;;5040471;28;20447;-70
2023/12/11 03:24:56;;;;;;;1.15;1.05;;;9.30;99.90;;;;;;5046122;28;20041;-70
2023/12/11 03:27:22;;;;;;;3.10;1.85;;;9.30;99.90;;;;;;5044789;28;20041;-70
2023/12/11 03:29:48;;;;;;;1.67;1.58;;;9.40;99.90;;;;;;5042112;28;20039;-70
2023/12/11 03:32:14;;;;;;;0.25;0.25;;;9.30;99.90;;;;;;5046594;28;20136;-70
2023/12/11 03:34:40;;;;;;;7.20;5.28;;;9.30;99.90;;;;;;5042020;28;20128;-70
2023/12/11 03:37:06;;;;;;;0.82;0.68;;;9.30;99.90;;;;;;5046043;28;20135;-70
2023/12/11 03:39:32;;;;;;;0.20;0.20;;;9.30;99.90;;;;;;5038828;28;20746;-70
2023/12/11 03:41:57;;;;;;;1.77;1.65;;;9.30;99.90;;;;;;5038648;28;20037;-70
2023/12/11 03:44:23;;;;;;;6.75;2.50;;;9.30;99.90;;;;;;5045072;28;20052;-70
2023/12/11 03:46:49;;;;;;;1.38;0.63;;;9.30;99.90;;;;;;5040022;28;20041;-70
2023/12/11 03:49:19;;;;;;;7.93;3.65;;;9.30;99.90;;;;;;5038767;28;20472;-70
2023/12/11 03:51:45;;;;;;;0.20;0.20;;;9.30;99.90;;;;;;5038243;28;20057;-70
2023/12/11 03:54:11;;;;;;;4.57;4.03;;;9.30;99.90;;;;;;5044289;28;20037;-71
2023/12/11 03:56:39;;;;;;;0.10;0.10;;;9.30;99.90;;;;;;5038448;28;20188;-70
2023/12/11 03:59:04;;;;;;;1.10;1.10;;;9.30;99.90;;;;;;5039436;28;20044;-70
2023/12/11 04:01:30;;;;;;;0.60;0.60;;;9.40;99.90;;;;;;5038361;28;20110;-70
2023/12/11 04:03:56;;;;;;;53.80;2.78;;;9.40;99.90;;;;;;5037776;28;20057;-70
2023/12/11 04:06:21;;;;;;;0.15;0.15;;;9.40;99.90;;;;;;5037433;28;20041;-70
2023/12/11 04:08:47;;;;;;;15.65;0.63;;;9.40;99.90;;;;;;5054024;28;20044;-70
2023/12/11 04:11:12;;;;;;;1.40;0.80;;;9.40;99.90;;;;;;5035314;28;20083;-70
2023/12/11 04:13:38;;;;;;;0.10;0.10;;;9.40;99.90;;;;;;5037435;28;20338;-70
2023/12/11 04:16:05;;;;;;;2.40;1.60;;;9.50;99.90;;;;;;5039414;28;20077;-70
2023/12/11 04:18:32;;;;;;;0.10;0.10;;;9.50;99.90;;;;;;5044405;28;20128;-70
2023/12/11 04:20:58;;;;;;;0.10;0.10;;;9.50;99.90;;;;;;5041003;28;20033;-70
2023/12/11 04:23:24;;;;;;;4.90;2.65;;;9.50;99.90;;;;;;5043846;28;20041;-70
2023/12/11 04:25:49;;;;;;;0.17;0.17;;;9.40;99.90;;;;;;5039466;28;20040;-70
2023/12/11 04:28:15;;;;;;;0.10;0.10;;;9.50;99.90;;;;;;5056252;28;20049;-70
2023/12/11 04:30:41;;;;;;;0.40;0.40;;;9.40;99.90;;;;;;5045972;28;20043;-70
2023/12/11 04:33:06;;;;;;;0.10;0.10;;;9.50;99.90;;;;;;5037028;28;20049;-70
2023/12/11 04:35:32;;;;;;;0.10;0.10;;;9.40;99.90;;;;;;5040662;28;20120;-70
2023/12/11 04:37:58;;;;;;;1.23;1.13;;;9.50;99.90;;;;;;5046608;28;20379;-70
2023/12/11 04:40:23;;;;;;;0.08;0.08;;;9.50;99.90;;;;;;5036460;28;20041;-70
2023/12/11 04:42:49;;;;;;;0.10;0.10;;;9.50;99.90;;;;;;5039453;28;20037;-70
2023/12/11 04:45:14;;;;;;;0.10;0.10;;;9.50;99.90;;;;;;5039876;28;20138;-70
2023/12/11 04:47:40;;;;;;;19.63;3.15;;;9.50;99.90;;;;;;5055109;28;20048;-70
2023/12/11 04:50:06;;;;;;;0.03;0.03;;;9.50;99.90;;;;;;5040776;28;20037;-70
2023/12/11 04:52:32;;;;;;;0.30;0.30;;;9.50;99.90;;;;;;5033500;28;20840;-70
2023/12/11 04:54:57;;;;;;;0.10;0.10;;;9.50;99.90;;;;;;5042188;28;20052;-69
2023/12/11 04:57:23;;;;;;;0.22;0.22;;;9.50;99.90;;;;;;5044373;28;20048;-70
2023/12/11 04:59:49;;;;;;;6.15;3.42;;;9.60;99.90;;;;;;5039621;28;20048;-70
2023/12/11 05:02:14;;;;;;;1.30;0.43;;;9.60;99.90;;;;;;5030447;28;20743;-69
2023/12/11 05:04:40;;;;;;;0.38;0.38;;;9.60;99.90;;;;;;5042122;28;20348;-70
2023/12/11 05:07:06;;;;;;;1.92;1.63;;;9.50;99.90;;;;;;5036437;28;20061;-69
2023/12/11 05:09:32;;;;;;;1.88;0.90;;;9.50;99.90;;;;;;5042689;28;20033;-68
2023/12/11 05:11:57;;;;;;;0.80;0.80;;;9.50;99.90;;;;;;5040018;28;20043;-70
2023/12/11 05:14:24;;;;;;;0.77;0.77;;;9.50;99.90;;;;;;5049106;28;20495;-69
2023/12/11 05:16:50;;;;;;;0.17;0.17;;;9.50;99.90;;;;;;5038851;28;20049;-69
2023/12/11 05:19:15;;;;;;;0.10;0.10;;;9.50;99.90;;;;;;5044934;28;20049;-69
2023/12/11 05:21:44;;;;;;;0.52;0.52;;;9.60;99.90;;;;;;5044757;28;20041;-69
2023/12/11 05:24:11;;;;;;;0.20;0.20;;;9.60;99.90;;;;;;5046324;28;20383;-69
2023/12/11 05:26:37;;;;;;;0.20;0.20;;;9.60;99.90;;;;;;5040977;28;20102;-69
2023/12/11 05:29:04;;;;;;;2.75;2.55;;;9.50;99.90;;;;;;5044369;28;20484;-69
2023/12/11 05:31:30;;;;;;;0.82;0.82;;;9.50;99.90;;;;;;5038693;28;20075;-69
2023/12/11 05:33:56;;;;;;;0.50;0.50;;;9.50;99.90;;;;;;5037592;28;20077;-69
2023/12/11 05:36:21;;;;;;;0.10;0.10;;;9.50;99.90;;;;;;5041421;28;20504;-69
2023/12/11 05:38:47;;;;;;;0.25;0.25;;;9.50;99.90;;;;;;5044833;28;20076;-69
2023/12/11 05:41:13;;;;;;;0.57;0.57;;;9.50;99.90;;;;;;5049610;28;20120;-69
2023/12/11 05:43:39;;;;;;;1.70;1.25;;;9.50;99.90;;;;;;5042673;28;20049;-69
2023/12/11 05:46:04;;;;;;;24.75;1.27;;;9.50;99.90;;;;;;5044240;28;20062;-69
2023/12/11 05:48:30;;;;;;;3.40;1.40;;;9.50;99.90;;;;;;5045965;28;20041;-69
2023/12/11 05:50:55;;;;;;;0.80;0.80;;;9.50;99.90;;;;;;5039045;28;20540;-70
2023/12/11 05:53:21;;;;;;;0.55;0.55;;;9.50;99.90;;;;;;5043535;28;20048;-70
2023/12/11 05:55:47;;;;;;;33.88;2.55;;;9.50;99.90;;;;;;5049360;28;20084;-69
2023/12/11 05:58:13;;;;;;;1.88;1.55;;;9.50;99.90;;;;;;5042992;28;20051;-70
2023/12/11 06:00:39;;;;;;;0.85;0.85;;;9.50;99.90;;;;;;5044629;28;20056;-70
2023/12/11 06:03:04;;;;;;;0.00;0.00;;;9.40;99.90;;;;;;5046396;28;20066;-71
2023/12/11 06:05:30;;;;;;;0.03;0.03;;;9.40;99.90;;;;;;5042018;28;20556;-70
2023/12/11 06:07:55;;;;;;;0.47;0.47;;;9.40;99.90;;;;;;5041815;28;20056;-71
2023/12/11 06:10:21;;;;;;;0.10;0.10;;;9.40;99.90;;;;;;5044904;28;20049;-72
2023/12/11 06:12:47;;;;;;;0.10;0.10;;;9.30;99.90;;;;;;5041674;28;20083;-71
2023/12/11 06:15:12;;;;;;;0.10;0.10;;;9.30;99.90;;;;;;5046003;28;20128;-71
2023/12/11 06:17:38;;;;;;;7.47;2.08;;;9.30;99.90;;;;;;5048407;28;20503;-71
2023/12/11 06:20:07;;;;;;;0.45;0.45;;;9.30;99.90;;;;;;5044505;28;20069;-71
2023/12/11 06:22:33;;;;;;;0.32;0.32;;;9.20;99.90;;;;;;5035003;28;20095;-71
2023/12/11 06:24:58;;;;;;;0.20;0.20;;;9.20;99.90;;;;;;5042719;28;20044;-70
2023/12/11 06:27:27;;;;;;;0.65;0.65;;;9.20;99.90;;;;;;5040989;28;20067;-70
2023/12/11 06:29:53;;;;;;;0.45;0.45;;;9.20;99.90;;;;;;5034377;28;20045;-70
2023/12/11 06:32:19;;;;;;;0.20;0.20;;;9.30;99.90;;;;;;5044473;28;20049;-70
2023/12/11 06:34:44;;;;;;;1.88;1.27;;;9.30;99.90;;;;;;5042912;28;20680;-70
2023/12/11 06:37:10;;;;;;;0.95;0.90;;;9.20;99.90;;;;;;5038499;28;20047;-70
2023/12/11 06:39:36;;;;;;;0.00;0.00;;;9.20;99.90;;;;;;5039232;28;20037;-70
2023/12/11 06:42:02;;;;;;;0.45;0.45;;;9.20;99.90;;;;;;5040653;28;20056;-70
2023/12/11 06:44:28;;;;;;;0.10;0.10;;;9.20;99.90;;;;;;5039067;28;20037;-70
2023/12/11 06:46:53;;;;;;;0.80;0.80;;;9.20;99.90;;;;;;5063566;28;20106;-70
2023/12/11 06:49:19;;;;;;;0.20;0.20;;;9.20;99.90;;;;;;5040612;28;20536;-70
2023/12/11 06:51:45;;;;;;;0.10;0.10;;;9.20;99.90;;;;;;5040398;28;20107;-70
2023/12/11 06:54:11;;;;;;;1.75;1.10;;;9.20;99.90;;;;;;5041289;28;20056;-71
2023/12/11 06:56:37;;;;;;;5.57;2.35;;;9.20;99.90;;;;;;5043503;28;20045;-70
2023/12/11 06:59:03;;;;;;;0.30;0.30;;;9.20;99.90;;;;;;5044339;28;20045;-71
2023/12/11 07:01:34;;;;;;;0.00;0.00;;;9.20;99.90;;;;;;5040127;28;20071;-70
2023/12/11 07:04:00;;;;;;;0.10;0.10;;;9.20;99.90;;;;;;5039358;28;20106;-70
2023/12/11 07:06:26;;;;;;;0.10;0.10;;;9.20;99.90;;;;;;5042851;28;20479;-70
2023/12/11 07:08:51;;;;;;;1.10;1.10;;;9.20;99.90;;;;;;5043119;28;20044;-69
2023/12/11 07:11:17;;;;;;;0.30;0.30;;;9.20;99.90;;;;;;5041686;28;20033;-69
2023/12/11 07:13:43;;;;;;;0.40;0.40;;;9.20;99.90;;;;;;5045427;28;20265;-69
2023/12/11 07:16:09;;;;;;;0.22;0.22;;;9.20;99.90;;;;;;5035489;28;20052;-70
2023/12/11 07:18:35;;;;;;;0.00;0.00;;;9.10;99.90;;;;;;5040548;28;20111;-69
2023/12/11 07:21:02;;;;;;;0.10;0.10;;;9.10;99.90;;;;;;5041513;28;20048;-70
2023/12/11 07:23:28;;;;;;;0.88;0.43;;;9.10;99.90;;;;;;5036209;28;20049;-70
2023/12/11 07:25:54;;;;;;;1.40;1.30;;;9.10;99.90;;;;;;5046587;28;20056;-70
2023/12/11 07:28:19;;;;;;;0.00;0.00;;;9.10;99.90;;;;;;5044829;28;20486;-70
2023/12/11 07:30:45;;;;;;;0.05;0.05;;;9.10;99.90;;;;;;5035085;28;20476;-70
2023/12/11 07:33:11;;;;;;;0.32;0.32;;;9.10;99.90;;;;;;5033231;28;20079;-70
2023/12/11 07:35:36;;;;;;;0.30;0.30;;;9.10;99.90;;;;;;5048315;28;20170;-70
2023/12/11 07:38:03;;;;;;;0.10;0.10;;;9.10;99.90;;;;;;5036185;28;20053;-70
2023/12/11 07:40:28;;;;;;;0.25;0.25;;;9.10;99.90;;;;;;5045639;28;20053;-70
2023/12/11 07:42:54;;;;;;;0.10;0.10;;;9.10;99.90;;;;;;5041778;28;20041;-70
2023/12/11 07:45:22;;;;;;;0.10;0.10;;;9.10;99.90;;;;;;5043268;28;20052;-70
2023/12/11 07:47:49;;;;;;;0.45;0.45;;;9.10;99.90;;;;;;5039501;28;20105;-71
2023/12/11 07:50:15;;;;;;;1.00;0.73;;;9.10;99.90;;;;;;5041674;28;20385;-70
2023/12/11 07:52:41;;;;;;;0.43;0.43;;;9.10;99.90;;;;;;5041358;28;20037;-70
2023/12/11 07:55:07;;;;;;;0.10;0.10;;;9.10;99.90;;;;;;5034704;28;20060;-70
2023/12/11 07:57:32;;;;;;;0.80;0.75;;;9.10;99.90;;;;;;5046556;28;20098;-70
2023/12/11 07:59:58;;;;;;;0.75;0.75;;;9.10;99.90;;;;;;5033761;28;20084;-70
2023/12/11 08:02:24;;;;;;;0.30;0.30;;;9.10;99.90;;;;;;5041537;28;20042;-69
2023/12/11 08:04:49;;;;;;;0.10;0.10;;;9.10;99.90;;;;;;5039015;28;20053;-70
2023/12/11 08:07:16;;;;;;;0.85;0.85;;;9.10;99.90;;;;;;5040902;28;20059;-70
2023/12/11 08:09:41;;;;;;;4.40;1.67;;;9.10;99.90;;;;;;5028618;28;20043;-70
2023/12/11 08:12:07;;;;;;;0.28;0.28;;;9.10;99.90;;;;;;5037085;28;20048;-70
2023/12/11 08:14:33;;;;;;;0.73;0.73;;;9.10;99.90;;;;;;5056792;28;20404;-70
2023/12/11 08:16:59;;;;;;;0.00;0.00;;;9.10;99.90;;;;;;5052207;28;20037;-69
2023/12/11 08:19:25;;;;;;;0.20;0.20;;;9.20;99.90;;;;;;5033628;28;20156;-70
2023/12/11 08:21:52;;;;;;;0.10;0.10;;;9.20;99.90;;;;;;5038465;28;20573;-69
2023/12/11 08:24:19;;;;;;;1.33;1.00;;;9.20;99.90;;;;;;5032953;28;20048;-69
2023/12/11 08:26:44;;;;;;;0.00;0.00;;;9.20;99.90;;;;;;5033344;28;20155;-69
2023/12/11 08:29:10;;;;;;;0.10;0.10;;;9.20;99.90;;;;;;5033399;28;20128;-69
2023/12/11 08:31:36;;;;;;;0.10;0.10;;;9.20;99.90;;;;;;5032042;28;20389;-69
2023/12/11 08:34:01;;;;;;;0.08;0.08;;;9.20;99.90;;;;;;5040970;28;20172;-69
2023/12/11 08:36:27;;;;;;;0.10;0.10;;;9.20;99.90;;;;;;5034975;28;20122;-69
2023/12/11 08:38:53;;;;;;;0.52;0.52;;;9.20;99.90;;;;;;5037795;28;20472;-69
2023/12/11 08:41:19;;;;;;;0.40;0.35;;;9.30;99.90;;;;;;5042918;28;20060;-69
2023/12/11 08:43:46;;;;;;;0.22;0.22;;;9.30;99.90;;;;;;5033582;28;20422;-69
2023/12/11 08:46:12;;;;;;;0.10;0.10;;;9.30;99.90;;;;;;5042044;28;20121;-69
2023/12/11 08:48:38;;;;;;;0.30;0.30;;;9.30;99.90;;;;;;5038268;28;20606;-70
2023/12/11 08:51:04;;;;;;;0.00;0.00;;;9.30;99.90;;;;;;5035193;28;20133;-70
2023/12/11 08:53:30;;;;;;;1.27;1.17;;;9.40;99.90;;;;;;5045985;28;20065;-69
2023/12/11 08:55:56;;;;;;;0.00;0.00;;;9.40;99.90;;;;;;5040422;28;20088;-69
2023/12/11 08:58:23;;;;;;;0.10;0.10;;;9.40;99.90;;;;;;5045271;28;20051;-69
2023/12/11 09:00:49;;;;;;;0.30;0.30;;;9.40;99.90;;;;;;5040853;28;20087;-69
2023/12/11 09:03:15;;;;;;;0.00;0.00;;;9.40;99.90;;;;;;5044222;28;20524;-70
2023/12/11 09:05:41;;;;;;;0.00;0.00;;;9.40;99.90;;;;;;5045752;28;20057;-71
2023/12/11 09:08:07;;;;;;;0.75;0.75;;;9.40;99.90;;;;;;5036848;28;20044;-69
2023/12/11 09:10:35;;;;;;;0.10;0.10;;;9.40;99.90;;;;;;5046889;28;20044;-68
2023/12/11 09:13:01;;;;;;;0.28;0.28;;;9.30;99.90;;;;;;5042815;28;20433;-68
2023/12/11 09:15:27;;;;;;;0.00;0.00;;;9.40;99.90;;;;;;5046469;28;20163;-68
2023/12/11 09:17:52;;;;;;;0.10;0.10;;;9.40;99.90;;;;;;5038591;28;20473;-68
2023/12/11 09:20:18;;;;;;;0.47;0.47;;;9.40;99.90;;;;;;5043471;28;20045;-69
2023/12/11 09:22:44;;;;;;;0.10;0.10;;;9.40;99.90;;;;;;5040005;28;20038;-69
2023/12/11 09:25:09;;;;;;;3.30;2.17;;;9.40;99.90;;;;;;5061396;28;20150;-69
2023/12/11 09:27:35;;;;;;;1.00;1.00;;;9.40;99.90;;;;;;5048013;28;20971;-69
2023/12/11 09:30:01;;;;;;;0.00;0.00;;;9.40;99.90;;;;;;5045101;28;20044;-70
2023/12/11 09:32:28;;;;;;;0.30;0.30;;;9.40;99.90;;;;;;5040091;28;20045;-68
2023/12/11 09:34:53;;;;;;;0.45;0.45;;;9.40;99.90;;;;;;5042844;28;20132;-68
2023/12/11 09:37:19;;;;;;;0.10;0.10;;;9.50;99.90;;;;;;5041468;28;20444;-69
2023/12/11 09:39:47;;;;;;;0.10;0.10;;;9.50;99.90;;;;;;5045586;28;20128;-68
2023/12/11 09:42:13;;;;;;;0.22;0.22;;;9.50;99.90;;;;;;5039930;28;20059;-68
2023/12/11 09:44:41;;;;;;;0.08;0.08;;;9.60;99.90;;;;;;5045803;28;20052;-69
2023/12/11 09:47:16;;;;;;;0.10;0.10;;;9.60;99.90;;;;;;5046939;28;20186;-68
2023/12/11 09:49:43;;;;;;;0.10;0.10;;;9.70;99.90;;;;;;5047314;28;20098;-69
2023/12/11 09:52:09;;;;;;;0.22;0.22;;;9.70;99.90;;;;;;5040639;28;20033;-68
2023/12/11 09:54:35;;;;;;;0.00;0.00;;;9.70;99.90;;;;;;5045074;28;20604;-68
2023/12/11 09:57:01;;;;;;;0.10;0.10;;;9.70;99.90;;;;;;5041914;28;20045;-69
2023/12/11 09:59:29;;;;;;;12.30;1.98;;;9.70;99.90;;;;;;5054807;28;20507;-68
2023/12/11 10:01:56;;;;;;;1.25;0.77;;;9.70;99.90;;;;;;5043684;28;20052;-68
2023/12/11 10:04:22;;;;;;;0.10;0.10;;;9.70;99.90;;;;;;5036379;28;20476;-69
2023/12/11 10:06:52;;;;;;;0.20;0.20;;;9.70;99.90;;;;;;5040124;28;20049;-68
2023/12/11 10:09:33;;;;;;;1.73;1.63;;;9.70;99.90;;;;;;5043122;28;20049;-69
2023/12/11 10:12:03;;;;;;;0.30;0.30;;;9.70;99.90;;;;;;5040815;28;20048;-68
2023/12/11 10:14:30;;;;;;;0.10;0.10;;;9.70;99.90;;;;;;5040057;28;20052;-68
2023/12/11 10:16:57;;;;;;;0.43;0.43;;;9.70;99.90;;;;;;5039058;28;20160;-68
2023/12/11 10:19:32;;;;;;;0.15;0.15;;;9.70;99.90;;;;;;5039095;28;20063;-68
2023/12/11 10:21:58;;;;;;;1.55;1.45;;;9.80;99.90;;;;;;5040521;28;20037;-69
2023/12/11 10:24:24;;;;;;;0.25;0.25;;;9.80;99.90;;;;;;5044234;28;20187;-68
2023/12/11 10:26:55;;;;;;;1.90;0.28;;;9.80;99.90;;;;;;5041033;28;20505;-68
2023/12/11 10:29:30;;;;;;;0.10;0.10;;;9.80;99.90;;;;;;5041343;28;20393;-69
2023/12/11 10:32:03;;;;;;;0.00;0.00;;;9.80;99.90;;;;;;5058535;28;20123;-68
2023/12/11 10:34:50;;;;;;;0.15;0.15;;;9.80;99.90;;;;;;5043991;28;20037;-68
2023/12/11 10:37:17;;;;;;;0.47;0.47;;;9.70;99.90;;;;;;5052170;28;20053;-68
2023/12/11 10:39:55;;;;;;;0.10;0.10;;;9.70;99.90;;;;;;5041654;28;20072;-68
2023/12/11 10:42:21;;;;;;;1.30;1.30;;;9.70;99.90;;;;;;5033025;28;20051;-67
2023/12/11 10:44:48;;;;;;;0.20;0.20;;;9.70;99.90;;;;;;5043276;28;20116;-67
2023/12/11 10:47:14;;;;;;;0.10;0.10;;;9.60;99.90;;;;;;5054753;28;20029;-66
2023/12/11 10:49:40;;;;;;;0.10;0.10;;;9.60;99.90;;;;;;5044060;28;20116;-69
2023/12/11 10:52:06;;;;;;;0.30;0.30;;;9.60;99.90;;;;;;5047467;28;20492;-72
2023/12/11 10:54:34;;;;;;;0.25;0.25;;;9.70;99.90;;;;;;5056449;28;20068;-72
2023/12/11 10:57:03;;;;;;;1.00;0.85;;;9.70;99.90;;;;;;5039717;28;20439;-72
2023/12/11 10:59:33;;;;;;;1.35;1.25;;;9.70;99.90;;;;;;5057722;28;20742;-73
2023/12/11 11:02:00;;;;;;;0.00;0.00;;;9.70;99.90;;;;;;5039023;28;20037;-74
2023/12/11 11:04:30;;;;;;;0.85;0.85;;;9.70;99.90;;;;;;5041232;28;20587;-76
2023/12/11 11:07:07;;;;;;;0.00;0.00;;;9.80;99.90;;;;;;5037609;28;20372;-75
2023/12/11 11:10:12;;;;;;;0.30;0.30;;;9.80;99.90;;;;;;5038890;28;20550;-69
2023/12/11 11:12:47;;;;;;;2.92;2.72;;;9.70;99.90;;;;;;5037050;28;20500;-69
2023/12/11 11:15:23;;;;;;;0.10;0.10;;;9.70;99.90;;;;;;5055974;28;20049;-69
2023/12/11 11:18:06;;;;;;;0.10;0.10;;;9.70;99.90;;;;;;5047525;28;20048;-69
2023/12/11 11:20:33;;;;;;;0.10;0.10;;;9.70;99.90;;;;;;5038930;28;20050;-68
2023/12/11 11:23:17;;;;;;;3.20;1.65;;;9.70;99.90;;;;;;5039444;28;20098;-68
2023/12/11 11:25:51;;;;;;;0.10;0.10;;;9.60;99.90;;;;;;5035327;28;20060;-69
2023/12/11 11:28:40;;;;;;;0.10;0.10;;;9.60;99.90;;;;;;5039017;28;20091;-68
2023/12/11 11:31:07;;;;;;;1.50;1.05;;;9.50;99.90;;;;;;5033366;28;20045;-68
2023/12/11 11:33:52;;;;;;;12.73;1.85;;;9.40;99.90;;;;;;5040375;28;20139;-69
2023/12/11 11:36:20;;;;;;;0.20;0.20;;;9.40;99.90;;;;;;5041394;28;20123;-68
2023/12/11 11:38:55;;;;;;;0.20;0.20;;;9.40;99.90;;;;;;5036483;28;20095;-69
2023/12/11 11:41:39;;;;;;;0.17;0.17;;;9.40;99.90;;;;;;5050241;28;20120;-69
2023/12/11 11:44:07;;;;;;;0.00;0.00;;;9.30;99.90;;;;;;5053871;28;20048;-69
2023/12/11 11:46:52;;;;;;;1.25;1.15;;;9.40;99.90;;;;;;5044751;28;20392;-69
2023/12/11 11:49:34;;;;;;;7.38;1.45;;;9.30;99.90;;;;;;5055424;28;20044;-69
2023/12/11 11:52:06;;;;;;;0.10;0.10;;;9.30;99.90;;;;;;5043673;28;20538;-69
2023/12/11 11:54:35;;;;;;;0.00;0.00;;;9.30;99.90;;;;;;5037316;28;20374;-69
2023/12/11 11:57:01;;;;;;;0.40;0.40;;;9.40;99.90;;;;;;5037640;28;20091;-69
2023/12/11 11:59:26;;;;;;;0.10;0.10;;;9.50;99.90;;;;;;5034137;28;20057;-69
2023/12/11 12:01:54;;;;;;;0.10;0.10;;;9.60;99.90;;;;;;5045335;28;20052;-69
2023/12/11 12:04:26;;;;;;;0.82;0.82;;;9.70;99.90;;;;;;5042287;28;20408;-69
2023/12/11 12:06:55;;;;;;;0.10;0.10;;;9.70;99.90;;;;;;5038736;28;20045;-69
2023/12/11 12:09:20;;;;;;;0.10;0.10;;;9.70;99.90;;;;;;5037642;28;20705;-69
2023/12/11 12:11:46;;;;;;;0.17;0.17;;;9.70;99.90;;;;;;5042909;28;20052;-69
2023/12/11 12:14:15;;;;;;;0.00;0.00;;;9.70;99.90;;;;;;5040910;28;20428;-69
2023/12/11 12:16:41;;;;;;;0.00;0.00;;;9.60;99.90;;;;;;5045458;28;20041;-69
2023/12/11 12:19:07;;;;;;;0.10;0.10;;;9.60;99.90;;;;;;5032883;28;20102;-69
2023/12/11 12:21:46;;;;;;;2.45;2.22;;;9.50;99.90;;;;;;5041930;28;20041;-69
2023/12/11 12:24:12;;;;;;;0.00;0.00;;;9.40;99.90;;;;;;5040677;28;20049;-68
2023/12/11 12:26:38;;;;;;;0.10;0.10;;;9.40;99.90;;;;;;5042369;28;20056;-69
2023/12/11 12:29:04;;;;;;;0.10;0.10;;;9.30;99.90;;;;;;5038888;28;20076;-69
2023/12/11 12:31:30;;;;;;;0.00;0.00;;;9.20;99.90;;;;;;5041629;28;20047;-69
2023/12/11 12:33:57;;;;;;;0.10;0.10;;;9.20;99.90;;;;;;5036202;28;20489;-69
2023/12/11 12:36:23;;;;;;;0.10;0.10;;;9.20;99.90;;;;;;5043280;28;20076;-69
2023/12/11 12:38:49;;;;;;;0.10;0.10;;;9.10;99.90;;;;;;5042053;28;20191;-69
2023/12/11 12:41:15;;;;;;;0.00;0.00;;;9.20;99.90;;;;;;5036340;28;20060;-69
2023/12/11 12:43:40;;;;;;;0.10;0.10;;;9.20;99.90;;;;;;5033942;28;20037;-69
2023/12/11 12:46:06;;;;;;;0.17;0.17;;;9.20;99.90;;;;;;5031416;28;20051;-69
2023/12/11 12:48:32;;;;;;;0.10;0.10;;;9.20;99.90;;;;;;5041154;28;20049;-69
2023/12/11 12:51:09;;;;;;;0.10;0.10;;;9.20;99.90;;;;;;5035239;28;20107;-68
2023/12/11 12:53:48;;;;;;;0.10;0.10;;;9.20;99.90;;;;;;5051370;28;20072;-68
2023/12/11 12:56:18;;;;;;;0.00;0.00;;;9.20;99.90;;;;;;5036465;28;20448;-68